Time;durP1;ratioP1;P1;durP2;ratioP2;P2;SDS_P1;SDS_P2;PMS_P1;PMS_P2;Temp;Humidity;BMP_temperature;BMP_pressure;BME280_temperature;BME280_humidity;BME280_pressure;Samples;Min_cycle;Max_cycle;Signal;HPM_P1;HPM_P2
2022/08/20 00:01:12;;;;;;;2.80;0.70;;;20.70;99.90;;;20.23;100.00;97680.84;4943433;28;20066;-64
2022/08/20 00:03:41;;;;;;;1.38;0.60;;;20.80;99.90;;;20.22;100.00;97681.81;4941869;29;20107;-65
2022/08/20 00:06:21;;;;;;;1.75;0.70;;;20.80;99.90;;;20.13;100.00;97687.81;4956598;28;20058;-66
2022/08/20 00:08:48;;;;;;;;;;;20.80;99.90;;;19.98;100.00;97689.03;4948345;28;20051;-66
2022/08/20 00:11:22;;;;;;;1.30;0.70;;;20.70;99.90;;;20.20;100.00;97690.78;4962559;28;19942;-65
2022/08/20 00:13:56;;;;;;;1.48;0.70;;;20.70;99.90;;;20.15;100.00;97678.00;4961432;28;20114;-63
2022/08/20 00:16:30;;;;;;;1.23;0.65;;;20.70;99.90;;;20.19;100.00;97683.88;4947188;28;20062;-63
2022/08/20 00:19:00;;;;;;;2.53;0.80;;;20.70;99.90;;;20.01;100.00;97689.63;4943784;28;20553;-65
2022/08/20 00:21:27;;;;;;;2.17;0.80;;;20.80;99.90;;;20.05;100.00;97698.16;4960869;28;20134;-66
2022/08/20 00:23:58;;;;;;;1.90;0.70;;;20.70;99.90;;;19.88;100.00;97699.44;4947642;28;20055;-65
2022/08/20 00:26:25;;;;;;;1.35;0.70;;;20.70;99.90;;;19.81;100.00;97709.63;4943276;28;20587;-66
2022/08/20 00:28:53;;;;;;;2.28;0.70;;;20.70;99.90;;;19.83;100.00;97714.78;4944735;28;20051;-64
2022/08/20 00:31:23;;;;;;;2.13;0.60;;;20.60;99.90;;;19.81;100.00;97714.91;4962999;28;20162;-63
2022/08/20 00:33:51;;;;;;;1.90;0.70;;;20.60;99.90;;;19.75;100.00;97720.66;4938049;28;20081;-64
2022/08/20 00:36:21;;;;;;;1.52;0.73;;;20.60;99.90;;;19.59;100.00;97720.13;4941951;28;20141;-64
2022/08/20 00:38:58;;;;;;;1.38;0.77;;;20.50;99.90;;;19.60;100.00;97717.38;4942723;28;20048;-63
2022/08/20 00:41:27;;;;;;;1.27;0.80;;;20.50;99.90;;;19.73;100.00;97719.09;4946459;28;20599;-64
2022/08/20 00:44:09;;;;;;;1.20;0.80;;;20.40;99.90;;;19.58;100.00;97727.19;4941352;28;20142;-63
2022/08/20 00:46:39;;;;;;;1.63;0.90;;;20.40;99.90;;;19.54;100.00;97728.38;4958058;28;20127;-64
2022/08/20 00:49:09;;;;;;;1.48;0.80;;;20.40;99.90;;;19.46;100.00;97733.41;4942769;28;20051;-63
2022/08/20 00:51:41;;;;;;;1.33;0.70;;;20.30;99.90;;;19.40;100.00;97734.69;4939272;28;21478;-64
2022/08/20 00:54:25;;;;;;;1.90;0.80;;;20.30;99.90;;;19.38;100.00;97741.88;4959463;28;20432;-64
2022/08/20 00:57:11;;;;;;;1.90;0.90;;;20.20;99.90;;;19.28;100.00;97745.31;4944796;28;20131;-63
2022/08/20 00:59:41;;;;;;;1.98;1.15;;;20.20;99.90;;;19.36;100.00;97750.84;4961509;28;20074;-63
2022/08/20 01:02:13;;;;;;;3.60;0.93;;;20.10;99.90;;;19.31;100.00;97756.44;4946728;28;20126;-64
2022/08/20 01:04:45;;;;;;;2.33;1.10;;;20.10;99.90;;;19.27;100.00;97760.25;4949173;28;20424;-64
2022/08/20 01:07:12;;;;;;;1.52;0.80;;;20.10;99.90;;;19.20;100.00;97765.16;4942934;28;20138;-66
2022/08/20 01:09:39;;;;;;;2.28;1.10;;;20.00;99.90;;;19.21;100.00;97769.47;4944953;28;20054;-66
2022/08/20 01:12:27;;;;;;;2.88;0.93;;;20.10;99.90;;;19.21;100.00;97763.38;4958333;28;20066;-66
2022/08/20 01:14:58;;;;;;;1.83;0.90;;;20.10;99.90;;;19.45;100.00;97765.94;4944195;28;20057;-65
2022/08/20 01:17:31;;;;;;;1.40;1.00;;;20.10;99.90;;;19.28;100.00;97758.50;4960132;28;20087;-63
2022/08/20 01:20:18;;;;;;;1.60;1.00;;;20.00;99.90;;;19.30;100.00;97765.31;4956418;28;20596;-63
2022/08/20 01:23:33;;;;;;;3.97;0.95;;;20.00;99.90;;;19.25;100.00;97762.19;4959506;28;20051;-65
2022/08/20 01:26:16;;;;;;;2.13;1.00;;;20.00;99.90;;;19.27;100.00;97772.59;4954443;28;20131;-63
2022/08/20 01:28:58;;;;;;;3.65;1.10;;;20.00;99.90;;;19.12;100.00;97782.47;4959972;28;20066;-63
2022/08/20 01:31:30;;;;;;;4.13;1.00;;;20.00;99.90;;;19.04;100.00;97785.66;4956664;28;20043;-65
2022/08/20 01:34:00;;;;;;;1.60;1.08;;;19.90;99.90;;;18.98;100.00;97794.84;4944149;29;20154;-65
2022/08/20 01:36:37;;;;;;;2.17;1.00;;;19.80;99.90;;;18.99;100.00;97803.56;4946531;28;20142;-63
2022/08/20 01:39:17;;;;;;;2.83;1.20;;;19.80;99.90;;;18.99;100.00;97807.03;4955807;28;20059;-64
2022/08/20 01:42:14;;;;;;;2.25;1.13;;;19.80;99.90;;;18.94;100.00;97803.91;4956831;28;20048;-63
2022/08/20 01:44:43;;;;;;;2.13;1.25;;;19.70;99.90;;;18.91;100.00;97800.69;4958180;28;20131;-63
2022/08/20 01:47:23;;;;;;;3.20;1.20;;;19.70;99.90;;;18.77;100.00;97815.66;4941594;28;20143;-63
2022/08/20 01:49:57;;;;;;;1.90;1.05;;;19.60;99.90;;;18.78;100.00;97824.38;4941038;28;20138;-63
2022/08/20 01:52:38;;;;;;;1.90;1.05;;;19.60;99.90;;;18.73;100.00;97829.13;4955755;28;20055;-65
2022/08/20 01:55:07;;;;;;;2.88;1.05;;;19.50;99.90;;;18.64;100.00;97838.50;4940998;28;20556;-64
2022/08/20 01:57:36;;;;;;;2.38;1.20;;;19.40;99.90;;;18.54;100.00;97842.72;4941269;28;20166;-65
2022/08/20 02:00:09;;;;;;;3.63;1.10;;;19.50;99.90;;;18.65;100.00;97850.69;4942934;28;20048;-63
2022/08/20 02:02:46;;;;;;;;;;;19.40;99.90;;;18.57;100.00;97853.03;4939586;28;20440;-65
2022/08/20 02:05:13;;;;;;;4.88;1.35;;;19.40;99.90;;;18.67;100.00;97854.03;4944808;28;20016;-66
2022/08/20 02:07:40;;;;;;;1.88;1.05;;;19.40;99.90;;;18.53;100.00;97857.66;4942755;28;20106;-64
2022/08/20 02:10:12;;;;;;;3.03;1.35;;;19.40;99.90;;;18.61;100.00;97857.13;4960253;28;20147;-64
2022/08/20 02:12:39;;;;;;;3.65;1.50;;;19.40;99.90;;;18.51;100.00;97856.09;4944585;28;20043;-64
2022/08/20 02:15:09;;;;;;;2.15;1.13;;;19.30;99.90;;;18.47;100.00;97865.13;4938539;28;20656;-64
2022/08/20 02:17:38;;;;;;;1.92;1.10;;;19.30;99.90;;;18.44;100.00;97866.19;4942574;28;20130;-64
2022/08/20 02:20:20;;;;;;;4.82;1.33;;;19.30;99.90;;;18.50;100.00;97870.19;4947349;28;20079;-64
2022/08/20 02:22:55;;;;;;;2.30;1.27;;;19.40;99.90;;;18.49;100.00;97882.47;4940244;28;20054;-64
2022/08/20 02:25:27;;;;;;;6.35;1.60;;;19.30;99.90;;;18.48;100.00;97885.22;4941528;28;20319;-64
2022/08/20 02:27:55;;;;;;;2.35;1.45;;;19.30;99.90;;;18.48;100.00;97898.38;4943816;28;20082;-64
2022/08/20 02:30:31;;;;;;;3.88;1.30;;;19.30;99.90;;;18.44;100.00;97896.88;4942545;28;20051;-64
2022/08/20 02:33:01;;;;;;;3.72;1.50;;;19.30;99.90;;;18.43;100.00;97906.56;4959598;28;20470;-64
2022/08/20 02:35:30;;;;;;;2.05;1.40;;;19.20;99.90;;;18.27;100.00;97908.56;4953519;28;20046;-64
2022/08/20 02:38:00;;;;;;;3.08;1.58;;;19.20;99.90;;;18.23;100.00;97914.97;4938956;28;20046;-64
2022/08/20 02:40:29;;;;;;;2.75;1.60;;;19.20;99.90;;;18.26;100.00;97925.28;4942664;28;20051;-64
2022/08/20 02:42:59;;;;;;;2.75;1.70;;;19.20;99.90;;;18.26;100.00;97923.47;4956066;28;20512;-64
2022/08/20 02:45:28;;;;;;;2.78;1.23;;;19.20;99.90;;;18.29;100.00;97927.69;4945736;28;20699;-63
2022/08/20 02:47:56;;;;;;;2.15;1.30;;;19.10;99.90;;;18.27;100.00;97927.81;4944618;28;20055;-64
2022/08/20 02:50:25;;;;;;;3.03;1.42;;;19.20;99.90;;;18.30;100.00;97924.97;4940732;29;20051;-64
2022/08/20 02:52:53;;;;;;;3.13;1.58;;;19.10;99.90;;;18.26;100.00;97938.41;4938359;28;20134;-64
2022/08/20 02:55:22;;;;;;;3.55;1.38;;;19.10;99.90;;;18.29;100.00;97933.81;4941134;28;20073;-64
2022/08/20 02:57:59;;;;;;;4.32;1.67;;;19.10;99.90;;;18.35;100.00;97928.09;4954307;28;20054;-64
2022/08/20 03:00:30;;;;;;;4.55;2.28;;;19.10;99.90;;;18.26;100.00;97936.63;4955875;28;20533;-64
2022/08/20 03:03:07;;;;;;;5.00;1.67;;;19.00;99.90;;;18.24;100.00;97935.03;4941758;28;20392;-64
2022/08/20 03:05:35;;;;;;;2.78;1.60;;;19.00;99.90;;;18.31;100.00;97939.75;4956598;28;20050;-64
2022/08/20 03:08:07;;;;;;;4.18;1.83;;;19.00;99.90;;;18.29;100.00;97939.06;4952377;28;20509;-64
2022/08/20 03:10:36;;;;;;;2.40;1.50;;;19.00;99.90;;;18.48;100.00;97936.00;4940573;28;20062;-64
2022/08/20 03:13:06;;;;;;;3.17;1.40;;;19.00;99.90;;;18.46;100.00;97940.50;4955920;28;20427;-64
2022/08/20 03:15:33;;;;;;;4.25;1.70;;;19.00;99.90;;;18.27;100.00;97933.06;4941298;28;20469;-64
2022/08/20 03:18:00;;;;;;;4.45;1.80;;;19.00;99.90;;;18.22;100.00;97943.03;4942509;28;20044;-64
2022/08/20 03:20:29;;;;;;;4.38;1.63;;;19.00;99.90;;;18.28;100.00;97947.03;4944630;28;20051;-64
2022/08/20 03:22:56;;;;;;;3.63;1.50;;;19.00;99.90;;;18.28;100.00;97945.25;4939208;28;20047;-64
2022/08/20 03:25:23;;;;;;;2.53;1.30;;;19.00;99.90;;;18.60;100.00;97937.75;4943427;28;20051;-64
2022/08/20 03:27:50;;;;;;;2.60;1.42;;;19.10;99.90;;;18.61;100.00;97933.38;4945266;28;20373;-64
2022/08/20 03:30:23;;;;;;;2.40;1.60;;;19.10;99.90;;;18.47;100.00;97941.34;4942846;28;20047;-64
2022/08/20 03:32:50;;;;;;;3.67;1.60;;;19.10;99.90;;;18.31;100.00;97937.13;4953355;28;20051;-64
2022/08/20 03:35:20;;;;;;;3.38;1.60;;;19.10;99.90;;;18.42;100.00;97949.56;4954660;28;20047;-64
2022/08/20 03:37:48;;;;;;;5.88;2.03;;;19.10;99.90;;;18.30;100.00;97948.59;4955031;28;20043;-64
2022/08/20 03:40:22;;;;;;;4.53;2.20;;;19.10;99.90;;;18.19;100.00;97959.00;4938722;28;20054;-64
2022/08/20 03:42:51;;;;;;;3.70;1.73;;;19.10;99.90;;;18.12;100.00;97955.94;4956317;28;20048;-64
2022/08/20 03:45:22;;;;;;;2.47;1.55;;;19.00;99.90;;;18.13;100.00;97968.16;4938710;28;20055;-65
2022/08/20 03:47:51;;;;;;;2.83;1.70;;;19.00;99.90;;;18.17;100.00;97963.50;4957867;28;20126;-64
2022/08/20 03:50:22;;;;;;;3.72;1.65;;;18.90;99.90;;;18.08;100.00;97964.97;4940102;28;20129;-64
2022/08/20 03:52:51;;;;;;;4.32;1.85;;;18.90;99.90;;;18.15;100.00;97960.16;4938560;28;20558;-64
2022/08/20 03:55:20;;;;;;;3.13;1.55;;;18.80;99.90;;;17.97;100.00;97970.97;4952105;28;20054;-65
2022/08/20 03:57:51;;;;;;;3.13;1.73;;;18.80;99.90;;;18.02;100.00;97985.56;4954418;28;20080;-65
2022/08/20 04:00:30;;;;;;;4.50;2.00;;;18.80;99.90;;;17.88;100.00;97987.34;4939635;28;20138;-65
2022/08/20 04:02:57;;;;;;;3.70;2.15;;;18.80;99.90;;;17.89;100.00;97988.16;4952898;28;20175;-64
2022/08/20 04:05:24;;;;;;;3.92;1.90;;;18.70;99.90;;;17.98;100.00;98000.69;4956351;28;20071;-65
2022/08/20 04:07:55;;;;;;;3.00;2.03;;;18.60;99.90;;;17.85;100.00;98011.13;4941430;28;20083;-65
2022/08/20 04:10:29;;;;;;;3.20;1.75;;;18.60;99.90;;;17.97;100.00;98015.63;4955847;28;20059;-64
2022/08/20 04:12:56;;;;;;;4.50;2.10;;;18.60;99.90;;;17.86;100.00;98012.84;4953655;28;20048;-64
2022/08/20 04:15:23;;;;;;;5.47;2.42;;;18.60;99.90;;;17.87;100.00;98014.50;4936350;28;20403;-65
2022/08/20 04:17:52;;;;;;;2.90;2.00;;;18.60;99.90;;;17.91;100.00;98023.88;4936759;28;20058;-65
2022/08/20 04:20:24;;;;;;;3.53;2.38;;;18.60;99.90;;;17.81;100.00;98027.16;4938903;28;20134;-64
2022/08/20 04:22:56;;;;;;;;;;;18.60;99.90;;;17.75;100.00;98031.88;4938164;29;20051;-64
2022/08/20 04:25:31;;;;;;;3.63;2.30;;;18.60;99.90;;;17.66;100.00;98036.88;4938255;28;19985;-64
2022/08/20 04:28:07;;;;;;;4.20;2.25;;;18.50;99.90;;;17.58;100.00;98047.84;4936833;28;20063;-64
2022/08/20 04:30:37;;;;;;;7.15;2.45;;;18.60;99.90;;;17.67;100.00;98056.94;4941588;28;20110;-65
2022/08/20 04:33:09;;;;;;;4.60;2.38;;;18.60;99.90;;;17.65;100.00;98056.19;4952709;28;20130;-64
2022/08/20 04:35:36;;;;;;;3.53;2.03;;;18.60;99.90;;;17.73;100.00;98072.31;4949930;28;20052;-65
2022/08/20 04:38:13;;;;;;;4.07;2.00;;;18.60;99.90;;;17.73;100.00;98081.03;4934616;28;20510;-65
2022/08/20 04:40:52;;;;;;;3.38;2.00;;;18.60;99.90;;;17.67;100.00;98073.53;4940815;28;20153;-64
2022/08/20 04:43:35;;;;;;;3.65;2.10;;;18.60;99.90;;;17.79;100.00;98085.06;4940666;28;20547;-65
2022/08/20 04:46:08;;;;;;;4.32;1.80;;;18.60;99.90;;;17.82;100.00;98086.66;4956541;28;20047;-65
2022/08/20 04:48:37;;;;;;;3.08;2.00;;;18.60;99.90;;;17.91;100.00;98084.28;4939800;28;20085;-65
2022/08/20 04:51:08;;;;;;;3.30;1.83;;;18.60;99.90;;;18.10;100.00;98085.72;4937387;28;20516;-65
2022/08/20 04:53:35;;;;;;;3.90;1.98;;;18.60;99.90;;;18.06;100.00;98082.44;4938097;28;21258;-65
2022/08/20 04:56:02;;;;;;;5.20;2.75;;;18.70;99.90;;;18.04;100.00;98084.34;4941476;29;20052;-65
2022/08/20 04:58:36;;;;;;;3.00;1.75;;;18.60;99.90;;;17.90;100.00;98085.25;4943114;28;20154;-64
2022/08/20 05:01:10;;;;;;;4.57;2.13;;;18.70;99.90;;;17.94;100.00;98086.72;4941684;29;20450;-64
2022/08/20 05:03:40;;;;;;;4.07;1.98;;;18.70;99.90;;;17.90;100.00;98097.50;4954612;28;20526;-65
2022/08/20 05:06:11;;;;;;;4.50;2.30;;;18.70;99.90;;;17.91;100.00;98104.47;4944097;29;20520;-65
2022/08/20 05:08:39;;;;;;;3.13;2.10;;;18.70;99.90;;;17.99;100.00;98102.16;4940941;28;20543;-65
2022/08/20 05:11:08;;;;;;;3.95;2.50;;;18.70;99.90;;;17.62;100.00;98112.34;4957840;28;20098;-65
2022/08/20 05:13:55;;;;;;;2.95;1.70;;;18.60;99.90;;;17.82;100.00;98120.81;4952607;28;20059;-65
2022/08/20 05:16:23;;;;;;;7.47;1.85;;;18.60;99.90;;;17.62;100.00;98135.16;4947289;28;20134;-64
2022/08/20 05:18:50;;;;;;;4.20;1.67;;;18.60;99.90;;;17.59;100.00;98151.09;4947230;28;20047;-64
2022/08/20 05:21:20;;;;;;;2.97;1.50;;;18.50;99.90;;;17.54;100.00;98170.59;4944178;29;20482;-64
2022/08/20 05:23:47;;;;;;;3.58;1.63;;;18.40;99.90;;;17.43;100.00;98198.44;4945216;28;20059;-65
2022/08/20 05:26:18;;;;;;;3.05;1.60;;;18.30;99.90;;;17.37;100.00;98217.16;4943498;28;20083;-65
2022/08/20 05:28:45;;;;;;;3.60;1.67;;;18.20;99.90;;;17.30;100.00;98256.03;4937328;28;20142;-65
2022/08/20 05:31:28;;;;;;;2.45;1.10;;;18.10;99.90;;;17.30;100.00;98280.50;4943456;28;20052;-64
2022/08/20 05:34:08;;;;;;;3.35;1.60;;;18.10;99.90;;;17.26;100.00;98299.13;4945599;28;20374;-65
2022/08/20 05:36:44;;;;;;;2.90;1.98;;;18.10;99.90;;;17.28;100.00;98319.09;4942092;28;20055;-65
2022/08/20 05:39:24;;;;;;;3.80;2.17;;;18.10;99.90;;;17.31;100.00;98344.31;4943692;28;20051;-65
2022/08/20 05:41:51;;;;;;;3.95;2.13;;;18.00;99.90;;;17.26;100.00;98356.84;4941547;28;20134;-64
2022/08/20 05:44:19;;;;;;;4.13;1.90;;;18.00;99.90;;;17.23;100.00;98357.88;4942643;28;20057;-64
2022/08/20 05:46:47;;;;;;;3.42;1.88;;;18.00;99.90;;;17.31;100.00;98378.41;4945599;28;20142;-64
2022/08/20 05:49:18;;;;;;;5.85;1.65;;;18.00;99.90;;;17.34;100.00;98392.22;4956270;28;20170;-64
2022/08/20 05:51:47;;;;;;;3.22;1.75;;;18.00;99.90;;;17.36;100.00;98397.38;4939463;28;20129;-64
2022/08/20 05:54:14;;;;;;;3.83;1.65;;;18.00;99.90;;;17.31;100.00;98404.66;4956844;28;20050;-64
2022/08/20 05:56:41;;;;;;;2.78;1.67;;;18.00;99.90;;;17.51;100.00;98417.50;4944065;28;20146;-64
2022/08/20 05:59:09;;;;;;;3.15;1.15;;;18.10;99.90;;;17.38;100.00;98419.16;4941096;28;20047;-64
2022/08/20 06:01:38;;;;;;;3.30;1.33;;;18.10;99.90;;;17.30;100.00;98432.69;4945130;28;20133;-64
2022/08/20 06:04:28;;;;;;;2.65;1.20;;;18.10;99.90;;;17.44;100.00;98439.78;4942992;28;20047;-65
2022/08/20 06:07:02;;;;;;;2.65;1.20;;;18.10;99.90;;;17.43;100.00;98456.47;4952219;28;20133;-64
2022/08/20 06:09:31;;;;;;;3.35;1.20;;;18.10;99.90;;;17.49;100.00;98464.00;4960791;28;20150;-64
2022/08/20 06:12:06;;;;;;;2.50;1.27;;;18.10;99.90;;;17.52;100.00;98466.44;4956479;28;20133;-64
2022/08/20 06:14:34;;;;;;;2.17;1.20;;;18.10;99.90;;;17.53;100.00;98468.13;4942324;28;20061;-65
2022/08/20 06:17:08;;;;;;;2.90;1.42;;;18.20;99.90;;;17.57;100.00;98466.19;4938519;28;20157;-65
2022/08/20 06:19:37;;;;;;;3.60;1.10;;;18.30;99.90;;;17.66;100.00;98470.06;4958930;28;20118;-64
2022/08/20 06:22:05;;;;;;;2.17;1.20;;;18.40;99.90;;;17.76;100.00;98466.81;4953022;28;20536;-65
2022/08/20 06:24:50;;;;;;;2.25;1.17;;;18.50;99.90;;;17.87;100.00;98465.38;4941145;28;20058;-65
2022/08/20 06:27:17;;;;;;;1.85;1.00;;;18.60;99.90;;;17.86;100.00;98459.28;4942843;28;20106;-64
2022/08/20 06:29:44;;;;;;;2.72;1.00;;;18.60;99.90;;;17.89;100.00;98459.09;4938994;28;20131;-65
2022/08/20 06:32:11;;;;;;;2.38;1.00;;;18.70;99.90;;;18.03;100.00;98455.66;4958348;28;20051;-65
2022/08/20 06:34:38;;;;;;;1.60;0.90;;;18.70;99.90;;;18.16;100.00;98450.53;4955773;28;20059;-65
2022/08/20 06:37:27;;;;;;;1.50;0.88;;;18.90;99.90;;;18.27;100.00;98440.22;4938476;28;20058;-65
2022/08/20 06:40:18;;;;;;;1.50;0.80;;;18.90;99.90;;;18.47;100.00;98444.25;4945047;28;20662;-65
2022/08/20 06:42:45;;;;;;;1.40;0.77;;;19.00;99.90;;;18.66;100.00;98432.66;4937328;28;20130;-64
2022/08/20 06:45:23;;;;;;;1.45;0.70;;;19.10;99.90;;;18.61;100.00;98419.78;4944998;28;20050;-65
2022/08/20 06:47:54;;;;;;;1.80;0.70;;;19.20;99.90;;;18.50;100.00;98395.94;4940176;28;20121;-65
2022/08/20 06:50:30;;;;;;;1.58;0.77;;;19.20;99.90;;;18.51;100.00;98387.09;4957366;28;20502;-65
2022/08/20 06:52:58;;;;;;;2.15;0.65;;;19.40;99.90;;;18.63;100.00;98378.44;4939106;29;20047;-64
2022/08/20 06:55:26;;;;;;;1.88;0.70;;;19.40;99.90;;;18.80;100.00;98366.91;4942702;28;20069;-65
2022/08/20 06:58:02;;;;;;;3.42;0.85;;;19.50;99.90;;;19.11;100.00;98365.78;4939345;28;20085;-65
2022/08/20 07:00:32;;;;;;;1.63;0.75;;;19.60;99.90;;;19.09;100.00;98358.91;4942144;28;20139;-65
2022/08/20 07:03:00;;;;;;;1.38;0.80;;;19.70;99.90;;;19.29;100.00;98339.19;4938193;28;20103;-65
2022/08/20 07:05:29;;;;;;;1.63;0.60;;;19.90;99.90;;;19.36;100.00;98328.16;4945372;28;20065;-65
2022/08/20 07:07:56;;;;;;;1.63;0.57;;;20.10;99.90;;;19.59;100.00;98309.94;4935970;28;20060;-65
2022/08/20 07:10:24;;;;;;;0.98;0.60;;;20.20;99.90;;;19.58;100.00;98300.38;4945163;28;20130;-65
2022/08/20 07:12:52;;;;;;;1.55;0.60;;;20.50;99.90;;;19.59;100.00;98278.34;4939077;28;20058;-65
2022/08/20 07:15:21;;;;;;;1.13;0.63;;;20.60;99.90;;;19.71;100.00;98272.28;4961536;28;20053;-65
2022/08/20 07:17:55;;;;;;;1.25;0.60;;;20.60;99.90;;;19.44;100.00;98269.72;4942422;28;20058;-65
2022/08/20 07:20:30;;;;;;;2.38;0.80;;;20.60;99.90;;;19.10;100.00;98258.81;4937833;28;20053;-65
2022/08/20 07:22:59;;;;;;;2.38;1.10;;;20.60;99.90;;;19.18;100.00;98269.69;4943794;28;20524;-65
2022/08/20 07:25:27;;;;;;;1.48;0.80;;;20.60;99.90;;;19.40;100.00;98278.78;4959544;28;20083;-65
2022/08/20 07:28:13;;;;;;;1.00;0.70;;;20.50;99.90;;;19.48;100.00;98262.44;4936467;28;20692;-65
2022/08/20 07:33:40;;;;;;;1.60;0.77;;;20.30;99.90;;;19.04;100.00;98247.84;4938218;28;20059;-65
2022/08/20 07:36:07;;;;;;;1.33;0.68;;;20.30;99.90;;;19.11;100.00;98254.41;4942439;28;20059;-64
2022/08/20 07:38:36;;;;;;;1.50;0.52;;;20.20;99.90;;;19.36;100.00;98251.81;4949994;28;20102;-64
2022/08/20 07:41:11;;;;;;;1.77;0.60;;;20.30;99.90;;;19.84;100.00;98244.16;4941725;28;20057;-65
2022/08/20 07:43:40;;;;;;;1.58;0.77;;;20.60;99.90;;;19.97;100.00;98217.78;4955633;28;20897;-65
2022/08/20 07:46:08;;;;;;;1.60;0.50;;;20.80;99.90;;;20.45;100.00;98196.75;4942067;28;20158;-65
2022/08/20 07:48:44;;;;;;;2.03;0.70;;;21.00;99.90;;;20.85;100.00;98167.47;4941688;28;20157;-64
2022/08/20 07:51:18;;;;;;;1.58;0.40;;;21.30;99.90;;;20.74;100.00;98116.47;4943061;28;20576;-65
2022/08/20 07:53:47;;;;;;;1.58;0.40;;;21.50;99.90;;;20.64;100.00;98113.66;4939100;28;20134;-65
2022/08/20 07:56:19;;;;;;;2.08;0.57;;;21.60;99.90;;;20.41;100.00;98118.84;4940298;29;20063;-65
2022/08/20 07:58:51;;;;;;;1.98;0.50;;;21.60;99.90;;;20.75;100.00;98118.13;4939504;28;20057;-65
2022/08/20 08:01:24;;;;;;;1.88;0.40;;;21.70;99.90;;;20.15;100.00;98110.19;4950084;28;20591;-65
2022/08/20 08:03:52;;;;;;;1.23;0.40;;;21.80;99.90;;;20.14;100.00;98119.06;4964504;28;20577;-65
2022/08/20 08:06:21;;;;;;;0.85;0.40;;;21.80;99.90;;;20.90;100.00;98093.22;4952669;28;20055;-65
2022/08/20 08:09:09;;;;;;;2.50;0.30;;;21.80;99.90;;;20.89;100.00;98073.91;4965109;28;20117;-65
2022/08/20 08:11:39;;;;;;;0.70;0.35;;;21.80;99.90;;;20.50;100.00;98071.63;4950405;28;20119;-65
2022/08/20 08:14:13;;;;;;;1.27;0.40;;;21.80;99.90;;;20.63;100.00;98075.91;4963940;28;20072;-65
2022/08/20 08:16:44;;;;;;;1.05;0.40;;;;;;;20.13;100.00;98075.22;4935323;28;20137;-65
2022/08/20 08:19:14;;;;;;;1.42;0.32;;;21.60;99.90;;;20.04;100.00;98092.53;4954696;28;20602;-65
2022/08/20 08:21:42;;;;;;;0.60;0.40;;;21.40;99.90;;;20.24;100.00;98091.06;4966230;28;20051;-65
2022/08/20 08:24:10;;;;;;;1.23;0.50;;;21.40;99.90;;;20.38;100.00;98078.66;4968718;28;20134;-65
2022/08/20 08:26:43;;;;;;;0.45;0.30;;;21.40;99.90;;;20.03;100.00;98082.13;4953300;28;20050;-65
2022/08/20 08:29:10;;;;;;;0.45;0.30;;;21.40;99.90;;;20.03;100.00;98077.69;4949268;28;20074;-65
2022/08/20 08:31:39;;;;;;;2.17;0.50;;;21.30;99.90;;;20.44;100.00;98073.78;4939585;29;20047;-65
2022/08/20 08:34:07;;;;;;;3.08;0.40;;;21.60;99.90;;;20.93;100.00;98068.41;4939649;28;21073;-65
2022/08/20 08:36:34;;;;;;;1.23;0.40;;;22.00;99.90;;;21.81;100.00;98046.53;4950341;28;21118;-65
2022/08/20 08:39:01;;;;;;;0.60;0.30;;;22.40;99.90;;;21.75;100.00;98010.03;4945950;28;20230;-65
2022/08/20 08:41:31;;;;;;;0.95;0.45;;;22.90;99.90;;;21.57;100.00;97994.69;4951278;28;20714;-66
2022/08/20 08:44:13;;;;;;;2.60;0.40;;;22.90;99.90;;;20.88;100.00;97979.88;4950075;28;20047;-65
2022/08/20 08:46:47;;;;;;;1.20;0.47;;;22.60;99.90;;;21.32;100.00;97964.09;4965558;28;20062;-65
2022/08/20 08:49:23;;;;;;;1.90;0.30;;;22.50;99.90;;;21.60;100.00;97975.09;4963984;28;20133;-65
2022/08/20 08:52:25;;;;;;;0.30;0.20;;;22.50;99.90;;;21.41;100.00;97917.66;4948161;28;20043;-65
2022/08/20 08:55:01;;;;;;;0.75;0.30;;;22.60;99.90;;;21.06;100.00;97916.06;4958404;28;20141;-65
2022/08/20 08:57:28;;;;;;;1.77;0.40;;;22.60;99.90;;;21.48;100.00;97918.84;4950162;28;20050;-66
2022/08/20 09:00:09;;;;;;;1.25;0.38;;;22.50;99.90;;;22.16;100.00;97897.38;4934839;28;20055;-65
2022/08/20 09:02:37;;;;;;;0.80;0.30;;;22.80;99.90;;;22.07;100.00;97891.06;4942421;28;20139;-65
2022/08/20 09:05:15;;;;;;;2.05;0.40;;;23.00;99.90;;;22.77;100.00;97882.38;4952236;28;20950;-65
2022/08/20 09:07:47;;;;;;;0.85;0.40;;;23.20;99.90;;;22.41;100.00;97888.22;4942657;28;20047;-65
2022/08/20 09:10:14;;;;;;;;;;;23.40;99.90;;;21.80;100.00;97934.69;4957667;28;20134;-65
2022/08/20 09:12:48;;;;;;;1.45;0.50;;;23.30;99.90;;;21.43;100.00;97943.00;4943922;28;20001;-65
2022/08/20 09:15:18;;;;;;;1.85;0.50;;;22.80;99.90;;;21.52;100.00;97949.31;4947724;28;20047;-65
2022/08/20 09:17:45;;;;;;;1.90;0.60;;;22.30;99.90;;;20.68;100.00;97970.03;4948161;28;20058;-65
2022/08/20 09:20:12;;;;;;;1.70;0.50;;;22.20;99.90;;;21.35;100.00;97970.94;4948432;28;20055;-65
2022/08/20 09:22:40;;;;;;;2.42;0.65;;;22.20;99.90;;;21.83;100.00;97958.22;4950156;28;20047;-65
2022/08/20 09:25:08;;;;;;;1.95;0.52;;;22.30;99.90;;;21.92;100.00;97944.25;4950527;28;20094;-65
2022/08/20 09:27:35;;;;;;;2.50;0.57;;;22.40;99.90;;;22.02;100.00;97932.91;4950195;28;20174;-65
2022/08/20 09:30:06;;;;;;;2.83;0.70;;;22.50;99.90;;;21.79;100.00;97926.91;4962272;28;20066;-65
2022/08/20 09:32:33;;;;;;;2.53;0.70;;;22.90;99.90;;;22.53;100.00;97918.88;4952504;28;20062;-65
2022/08/20 09:35:01;;;;;;;2.63;0.70;;;23.10;99.90;;;22.93;100.00;97899.56;4949531;28;20477;-65
2022/08/20 09:37:32;;;;;;;;;;;23.10;99.90;;;24.38;100.00;97869.56;4949119;28;20066;-65
2022/08/20 09:40:07;;;;;;;1.55;0.65;;;23.80;99.90;;;23.83;100.00;97837.59;4942234;28;20053;-66
2022/08/20 09:42:36;;;;;;;3.33;0.70;;;24.10;99.90;;;24.61;100.00;97832.91;4937101;28;20214;-65
2022/08/20 09:45:09;;;;;;;1.80;0.55;;;24.50;99.90;;;25.47;100.00;97805.06;4950106;28;20066;-65
2022/08/20 09:47:39;;;;;;;0.95;0.50;;;24.90;99.90;;;24.02;100.00;97783.72;4951801;28;20154;-65
2022/08/20 09:50:21;;;;;;;1.83;0.55;;;25.20;99.90;;;24.38;100.00;97781.16;4947341;28;21048;-65
2022/08/20 09:52:53;;;;;;;2.22;0.60;;;25.10;99.90;;;24.15;100.00;97792.19;4947942;28;20058;-64
2022/08/20 09:55:26;;;;;;;2.05;0.50;;;25.00;99.90;;;23.69;100.00;97777.91;4951830;28;20134;-64
2022/08/20 09:57:53;;;;;;;1.75;0.40;;;25.00;99.90;;;24.39;100.00;97775.72;4939503;28;20043;-65
2022/08/20 10:00:20;;;;;;;2.50;0.43;;;25.00;99.90;;;24.83;100.00;97748.53;4954265;28;20681;-64
2022/08/20 10:02:47;;;;;;;1.45;0.30;;;25.20;99.90;;;25.75;100.00;97727.84;4938525;28;20134;-65
2022/08/20 10:05:14;;;;;;;1.45;0.40;;;25.30;99.90;;;25.18;100.00;97718.50;4935762;28;20062;-66
2022/08/20 10:07:42;;;;;;;0.73;0.30;;;25.70;99.90;;;26.00;100.00;97711.06;4940623;28;20879;-65
2022/08/20 10:10:13;;;;;;;2.05;0.45;;;25.70;99.90;;;25.14;100.00;97708.31;4938318;28;20078;-65
2022/08/20 10:12:40;;;;;;;1.80;0.60;;;25.80;99.90;;;26.06;100.00;97690.97;4957325;28;20090;-65
2022/08/20 10:15:09;;;;;;;0.60;0.28;;;26.00;99.90;;;25.55;100.00;97677.56;4947987;28;20065;-65
2022/08/20 10:17:38;;;;;;;0.85;0.30;;;25.90;99.90;;;25.15;100.00;97681.56;4949815;28;20074;-65
2022/08/20 10:20:08;;;;;;;1.23;0.32;;;26.00;99.90;;;25.15;100.00;97654.19;4946857;28;20101;-65
2022/08/20 10:22:35;;;;;;;0.80;0.20;;;25.80;99.90;;;25.18;100.00;97651.22;4949139;28;20047;-65
2022/08/20 10:25:04;;;;;;;0.80;0.20;;;25.70;99.90;;;24.40;100.00;97686.34;4942686;28;20827;-65
2022/08/20 10:27:32;;;;;;;1.27;0.32;;;25.70;99.30;;;24.49;100.00;97650.97;4946486;28;20113;-64
2022/08/20 10:29:59;;;;;;;1.27;0.30;;;25.50;99.10;;;25.59;100.00;97648.81;4940535;28;20083;-64
2022/08/20 10:32:26;;;;;;;1.80;0.30;;;25.50;99.90;;;25.24;100.00;97643.50;4943201;29;20138;-64
2022/08/20 10:34:53;;;;;;;2.47;0.28;;;25.70;99.90;;;24.96;100.00;97644.59;4950138;28;20066;-64